Time;durP1;ratioP1;P1;durP2;ratioP2;P2;SDS_P1;SDS_P2;PMS_P1;PMS_P2;Temp;Humidity;BMP_temperature;BMP_pressure;BME280_temperature;BME280_humidity;BME280_pressure;Samples;Min_cycle;Max_cycle;Signal;HPM_P1;HPM_P2
2022/03/24 04:03:29;;;;;;;1.85;1.73;;;18.00;50.30;;;;;;4991409;28;46077;-59
2022/03/24 04:05:56;;;;;;;1.98;1.73;;;17.90;50.30;;;;;;4994677;28;46999;-59
2022/03/24 04:08:22;;;;;;;1.90;1.70;;;17.90;50.30;;;;;;4999223;28;44981;-58
2022/03/24 04:10:48;;;;;;;1.65;1.55;;;17.90;50.30;;;;;;4998206;28;45867;-59
2022/03/24 04:13:21;;;;;;;2.05;1.80;;;17.90;50.30;;;;;;4999302;28;45130;-57
2022/03/24 04:15:47;;;;;;;2.42;2.00;;;17.90;50.30;;;;;;4994859;28;46102;-57
2022/03/24 04:18:13;;;;;;;2.10;1.90;;;17.90;50.30;;;;;;4996986;28;45433;-55
2022/03/24 04:20:39;;;;;;;2.10;1.90;;;17.90;50.30;;;;;;4997852;28;45170;-56
2022/03/24 04:23:05;;;;;;;2.72;2.15;;;17.90;50.20;;;;;;4998295;28;45256;-57
2022/03/24 04:25:32;;;;;;;2.20;2.00;;;17.90;50.30;;;;;;4998710;28;45516;-59
2022/03/24 04:27:57;;;;;;;1.88;1.67;;;17.90;50.30;;;;;;4989661;28;45276;-57
2022/03/24 04:30:26;;;;;;;2.00;1.80;;;17.90;50.30;;;;;;4996891;28;45365;-58
2022/03/24 04:32:51;;;;;;;1.85;1.60;;;17.90;50.30;;;;;;5000005;28;45465;-58
2022/03/24 04:35:17;;;;;;;2.28;1.95;;;17.80;50.30;;;;;;5002011;28;46254;-56
2022/03/24 04:37:43;;;;;;;2.08;1.88;;;17.80;50.30;;;;;;4998038;28;45580;-53
2022/03/24 04:40:10;;;;;;;1.80;1.70;;;17.90;50.30;;;;;;4999401;28;45315;-58
2022/03/24 04:42:36;;;;;;;1.85;1.67;;;17.80;50.30;;;;;;5000112;28;45475;-58
2022/03/24 04:45:02;;;;;;;1.90;1.70;;;17.80;50.30;;;;;;5013978;28;45445;-58
2022/03/24 04:47:28;;;;;;;2.40;2.05;;;17.80;50.30;;;;;;4998556;28;45256;-57
2022/03/24 04:49:53;;;;;;;2.22;2.00;;;17.80;50.30;;;;;;4995290;28;45471;-57
2022/03/24 04:52:19;;;;;;;2.80;2.00;;;17.80;50.30;;;;;;4996565;28;45162;-58
2022/03/24 04:54:45;;;;;;;2.10;1.90;;;17.80;50.30;;;;;;4997208;28;46047;-54
2022/03/24 04:57:11;;;;;;;2.08;1.88;;;17.80;50.40;;;;;;4994399;28;45607;-56
2022/03/24 04:59:37;;;;;;;3.05;2.17;;;17.80;50.30;;;;;;4989094;28;45193;-55
2022/03/24 05:02:03;;;;;;;1.77;1.67;;;17.80;50.30;;;;;;4994552;28;45023;-57
2022/03/24 05:04:28;;;;;;;2.03;1.83;;;17.80;50.30;;;;;;4990877;28;46898;-57
2022/03/24 05:06:54;;;;;;;2.22;1.98;;;17.70;50.90;;;;;;4994530;28;45077;-57
2022/03/24 05:09:20;;;;;;;2.05;1.88;;;17.80;50.30;;;;;;4991445;28;45636;-55
2022/03/24 05:11:45;;;;;;;2.10;1.80;;;17.70;50.30;;;;;;4988706;28;45055;-60
2022/03/24 05:14:11;;;;;;;2.45;2.08;;;17.80;50.30;;;;;;4990288;28;45974;-57
2022/03/24 05:16:37;;;;;;;2.28;1.98;;;17.70;50.30;;;;;;4994105;28;45266;-56
2022/03/24 05:19:03;;;;;;;2.45;2.03;;;17.70;50.30;;;;;;4992670;28;45213;-59
2022/03/24 05:21:29;;;;;;;2.30;2.10;;;17.70;50.30;;;;;;4995162;28;44965;-56
2022/03/24 05:23:54;;;;;;;2.60;1.92;;;17.70;50.30;;;;;;4992828;28;46000;-56
2022/03/24 05:26:24;;;;;;;2.03;1.75;;;17.70;50.30;;;;;;4992861;28;45628;-59
2022/03/24 05:28:50;;;;;;;2.00;1.90;;;17.70;50.30;;;;;;4993583;28;45392;-58
2022/03/24 05:31:16;;;;;;;2.30;2.10;;;17.70;50.40;;;;;;4992559;28;45428;-59
2022/03/24 05:33:43;;;;;;;2.58;2.15;;;17.70;50.30;;;;;;4994410;28;46906;-59
2022/03/24 05:36:09;;;;;;;1.80;1.70;;;17.70;50.30;;;;;;4992194;28;45687;-57
2022/03/24 05:38:34;;;;;;;2.25;1.98;;;17.70;50.30;;;;;;4993760;28;45296;-57
2022/03/24 05:41:01;;;;;;;2.67;2.33;;;17.60;50.30;;;;;;4992697;28;44741;-58
2022/03/24 05:43:26;;;;;;;2.40;2.20;;;17.70;50.30;;;;;;4992682;28;45663;-57
2022/03/24 05:45:52;;;;;;;2.50;2.17;;;17.70;50.30;;;;;;4994590;28;45228;-58
2022/03/24 05:48:18;;;;;;;2.25;1.92;;;17.70;50.30;;;;;;4990082;28;45501;-58
2022/03/24 05:50:44;;;;;;;2.13;1.83;;;17.60;50.30;;;;;;4987297;28;45505;-58
2022/03/24 05:53:10;;;;;;;2.63;1.95;;;17.60;50.30;;;;;;4990478;28;45962;-58
2022/03/24 05:55:37;;;;;;;1.80;1.65;;;17.60;50.20;;;;;;4991552;28;45408;-58
2022/03/24 05:58:04;;;;;;;2.88;2.05;;;17.70;50.20;;;;;;4989575;28;45461;-58
2022/03/24 06:00:29;;;;;;;2.50;2.00;;;17.70;50.20;;;;;;4987888;28;45319;-58
2022/03/24 06:02:55;;;;;;;2.92;2.13;;;17.70;50.10;;;;;;4991904;28;45532;-56
2022/03/24 06:05:22;;;;;;;2.63;2.10;;;17.80;49.90;;;;;;4989235;28;45173;-57
2022/03/24 06:07:48;;;;;;;2.88;2.08;;;18.00;49.50;;;;;;4991336;28;45504;-57
2022/03/24 06:10:13;;;;;;;2.25;1.98;;;18.40;48.90;;;;;;4989981;28;46260;-56
2022/03/24 06:12:39;;;;;;;2.22;1.98;;;18.80;47.90;;;;;;4991019;28;45080;-56
2022/03/24 06:15:06;;;;;;;2.45;2.22;;;19.10;47.20;;;;;;4990242;28;45556;-58
2022/03/24 06:17:31;;;;;;;2.03;1.83;;;19.20;46.80;;;;;;4992734;28;45299;-58
2022/03/24 06:19:57;;;;;;;2.63;2.30;;;18.60;47.70;;;;;;4992636;28;45494;-57
2022/03/24 06:22:23;;;;;;;2.33;2.08;;;18.30;48.50;;;;;;4989868;28;45956;-55
2022/03/24 06:24:48;;;;;;;3.55;2.20;;;18.10;49.00;;;;;;4991864;28;45409;-55
2022/03/24 06:27:16;;;;;;;2.42;2.13;;;18.00;49.30;;;;;;4986756;28;45715;-57
2022/03/24 06:29:41;;;;;;;2.28;2.08;;;17.90;49.50;;;;;;4992213;28;44751;-56
2022/03/24 06:32:07;;;;;;;2.63;2.22;;;17.90;49.60;;;;;;4990910;28;45559;-54
2022/03/24 06:34:33;;;;;;;2.30;2.00;;;17.80;49.60;;;;;;4993042;28;45076;-56
2022/03/24 06:36:58;;;;;;;2.25;2.05;;;17.80;49.70;;;;;;4990773;28;45474;-56
2022/03/24 06:39:24;;;;;;;2.58;2.25;;;17.80;49.70;;;;;;4991341;28;45356;-53
2022/03/24 06:41:49;;;;;;;1.80;1.65;;;17.80;49.80;;;;;;4989998;28;45978;-57
2022/03/24 06:44:15;;;;;;;2.22;2.03;;;17.80;49.80;;;;;;4988815;28;45278;-56
2022/03/24 06:46:41;;;;;;;1.88;1.77;;;17.80;49.80;;;;;;4991885;28;45206;-59
2022/03/24 06:49:07;;;;;;;2.65;2.10;;;17.80;49.80;;;;;;4989629;28;45460;-54
2022/03/24 06:51:32;;;;;;;2.10;1.90;;;17.70;49.80;;;;;;4995554;28;46093;-59
2022/03/24 06:53:58;;;;;;;2.30;2.10;;;17.70;49.80;;;;;;4994163;28;45043;-57
2022/03/24 06:56:23;;;;;;;3.10;2.08;;;17.70;49.80;;;;;;4995014;28;44809;-56
2022/03/24 06:58:50;;;;;;;3.75;2.15;;;17.70;49.80;;;;;;4991590;28;45441;-56
2022/03/24 07:01:16;;;;;;;2.97;2.25;;;17.80;49.80;;;;;;4970667;28;45775;-60
2022/03/24 07:03:41;;;;;;;6.07;4.43;;;17.80;49.70;;;;;;4976836;28;45496;-59
2022/03/24 07:06:07;;;;;;;4.40;3.92;;;17.80;48.50;;;;;;4992443;28;45217;-58
2022/03/24 07:08:33;;;;;;;4.85;3.65;;;17.80;48.10;;;;;;4993252;28;47376;-58
2022/03/24 07:10:58;;;;;;;4.07;3.45;;;17.90;48.40;;;;;;4992743;28;44956;-58
2022/03/24 07:13:24;;;;;;;5.60;4.10;;;18.00;48.20;;;;;;4993934;28;45117;-57
2022/03/24 07:15:50;;;;;;;4.65;3.60;;;18.10;48.00;;;;;;4975951;28;45303;-56
2022/03/24 07:18:15;;;;;;;5.72;3.80;;;18.30;47.80;;;;;;4992322;28;45669;-61
2022/03/24 07:20:41;;;;;;;4.78;3.47;;;18.40;47.60;;;;;;4994425;28;46150;-59
2022/03/24 07:23:08;;;;;;;4.03;3.47;;;18.50;47.50;;;;;;4991747;28;44964;-59
2022/03/24 07:25:36;;;;;;;4.25;3.35;;;18.60;47.30;;;;;;4994405;28;45400;-60
2022/03/24 07:28:02;;;;;;;4.07;3.38;;;18.80;47.10;;;;;;4992260;28;45525;-60
2022/03/24 07:30:27;;;;;;;3.83;2.95;;;18.90;47.00;;;;;;4990365;28;45217;-60
2022/03/24 07:32:54;;;;;;;5.18;2.78;;;19.00;46.90;;;;;;4995097;28;45491;-56
2022/03/24 07:35:20;;;;;;;4.07;3.03;;;19.10;46.80;;;;;;4974769;28;44723;-60
2022/03/24 07:37:48;;;;;;;4.78;2.80;;;19.30;46.80;;;;;;4992502;28;45248;-59
2022/03/24 07:40:18;;;;;;;2.88;2.63;;;19.40;46.70;;;;;;4990015;28;47160;-61
2022/03/24 07:42:44;;;;;;;4.25;2.47;;;19.50;46.60;;;;;;4990645;28;45216;-61
2022/03/24 07:45:10;;;;;;;3.03;2.45;;;19.60;46.50;;;;;;4992466;28;45029;-62
2022/03/24 07:47:36;;;;;;;2.28;2.08;;;19.80;46.50;;;;;;4989504;28;45384;-59
2022/03/24 07:50:01;;;;;;;4.28;2.70;;;19.90;46.40;;;;;;4994057;28;45205;-61
2022/03/24 07:52:28;;;;;;;2.78;2.30;;;20.00;46.30;;;;;;4993850;28;45070;-57
2022/03/24 07:54:55;;;;;;;3.15;2.47;;;20.10;46.20;;;;;;4976460;28;45580;-59
2022/03/24 07:57:21;;;;;;;4.90;2.15;;;20.30;46.10;;;;;;4991205;28;45510;-57
2022/03/24 07:59:47;;;;;;;2.40;2.20;;;20.40;46.10;;;;;;4991316;28;45242;-58
2022/03/24 08:02:12;;;;;;;3.20;2.13;;;20.50;46.00;;;;;;4991833;28;46395;-56
2022/03/24 08:04:38;;;;;;;2.70;2.10;;;20.60;45.90;;;;;;4990799;28;44741;-59
2022/03/24 08:07:04;;;;;;;2.47;2.05;;;20.70;45.80;;;;;;4992316;28;44954;-60
2022/03/24 08:09:33;;;;;;;1.98;1.73;;;20.80;45.70;;;;;;4993666;28;47038;-60
2022/03/24 08:11:59;;;;;;;2.35;1.90;;;20.90;45.60;;;;;;4992073;28;45372;-60
2022/03/24 08:14:25;;;;;;;1.85;1.70;;;21.10;45.60;;;;;;4992293;28;45270;-58
2022/03/24 08:16:50;;;;;;;;;;;21.20;45.60;;;;;;4994259;28;45550;-61
2022/03/24 08:19:16;;;;;;;2.00;1.67;;;21.30;45.60;;;;;;4993104;28;45817;-61
2022/03/24 08:21:42;;;;;;;3.30;1.88;;;21.30;45.30;;;;;;4993898;28;45066;-60
2022/03/24 08:24:08;;;;;;;4.10;1.80;;;21.50;45.30;;;;;;4992136;28;44657;-60
2022/03/24 08:26:37;;;;;;;2.03;1.83;;;21.60;45.20;;;;;;4993778;28;45411;-60
2022/03/24 08:29:03;;;;;;;1.77;1.65;;;21.70;45.10;;;;;;4992908;28;45302;-58
2022/03/24 08:31:29;;;;;;;1.95;1.63;;;21.80;45.00;;;;;;4995626;28;45489;-60
2022/03/24 08:33:55;;;;;;;1.63;1.52;;;21.90;45.00;;;;;;4994138;28;45548;-60
2022/03/24 08:36:21;;;;;;;3.17;1.92;;;22.00;44.90;;;;;;4996054;28;45639;-60
2022/03/24 08:38:46;;;;;;;1.85;1.67;;;22.10;44.80;;;;;;4992978;28;47054;-59
2022/03/24 08:41:12;;;;;;;2.05;1.70;;;22.20;44.80;;;;;;4971601;28;44927;-60
2022/03/24 08:43:38;;;;;;;2.72;1.60;;;22.20;44.70;;;;;;4994273;28;45632;-58
2022/03/24 08:46:03;;;;;;;1.98;1.70;;;22.30;44.70;;;;;;4996475;28;45312;-59
2022/03/24 08:48:29;;;;;;;2.47;1.80;;;22.40;44.70;;;;;;4996079;28;46265;-60
2022/03/24 08:50:55;;;;;;;1.88;1.70;;;22.50;44.50;;;;;;4994210;28;45041;-61
2022/03/24 08:53:20;;;;;;;2.30;1.70;;;22.60;44.60;;;;;;4993881;28;45433;-59
2022/03/24 08:55:46;;;;;;;1.67;1.48;;;22.60;44.50;;;;;;4997026;28;45450;-58
2022/03/24 08:58:18;;;;;;;2.38;1.88;;;22.70;44.40;;;;;;4994918;28;45137;-60
2022/03/24 09:00:45;;;;;;;2.00;1.83;;;22.80;44.40;;;;;;4994934;28;45312;-61
2022/03/24 09:03:10;;;;;;;3.85;1.50;;;22.80;44.30;;;;;;4996693;28;45384;-60
2022/03/24 09:05:36;;;;;;;1.90;1.60;;;22.90;44.30;;;;;;4994007;28;45472;-60
2022/03/24 09:08:02;;;;;;;2.63;1.90;;;23.00;44.20;;;;;;4994103;28;46349;-60
2022/03/24 09:10:27;;;;;;;2.60;1.90;;;23.20;43.90;;;;;;4992623;28;45208;-60
2022/03/24 09:12:53;;;;;;;1.90;1.67;;;23.20;44.10;;;;;;4991568;28;45440;-60
2022/03/24 09:15:19;;;;;;;3.65;1.67;;;23.20;44.10;;;;;;4993427;28;44875;-59
2022/03/24 09:17:45;;;;;;;1.88;1.15;;;23.20;44.10;;;;;;4977375;28;45214;-60
2022/03/24 09:20:12;;;;;;;2.78;1.45;;;23.30;44.10;;;;;;4992777;28;45568;-59
2022/03/24 09:22:43;;;;;;;1.83;1.55;;;23.30;44.00;;;;;;4994341;28;45611;-58
2022/03/24 09:25:09;;;;;;;2.80;1.40;;;23.40;43.90;;;;;;4993490;28;45088;-61
2022/03/24 09:27:35;;;;;;;1.80;1.70;;;23.50;44.00;;;;;;4978257;28;47522;-61
2022/03/24 09:30:02;;;;;;;4.20;1.80;;;23.50;44.00;;;;;;4994379;28;45361;-62
2022/03/24 09:32:28;;;;;;;1.70;1.60;;;23.50;43.80;;;;;;4992586;28;44808;-58
2022/03/24 09:34:54;;;;;;;2.08;1.52;;;23.60;43.90;;;;;;4990892;28;45575;-60
2022/03/24 09:37:22;;;;;;;2.05;1.30;;;23.60;43.90;;;;;;4991988;28;46042;-63
2022/03/24 09:39:48;;;;;;;1.95;1.45;;;23.70;43.80;;;;;;4995713;28;45146;-61
2022/03/24 09:42:13;;;;;;;1.83;1.45;;;23.70;43.80;;;;;;4992245;28;44715;-60
2022/03/24 09:44:42;;;;;;;1.70;1.60;;;23.80;43.80;;;;;;4993169;28;46546;-61
2022/03/24 09:47:12;;;;;;;1.65;1.30;;;23.80;43.70;;;;;;4992864;28;47411;-60
2022/03/24 09:49:41;;;;;;;4.80;1.60;;;23.90;43.70;;;;;;4993198;28;44710;-60
2022/03/24 09:52:11;;;;;;;2.25;1.60;;;23.90;43.80;;;;;;4970786;28;45015;-58
2022/03/24 09:54:42;;;;;;;1.60;1.50;;;23.90;43.60;;;;;;4989582;28;45074;-59
2022/03/24 09:57:08;;;;;;;4.15;1.40;;;23.90;43.60;;;;;;4993162;28;45678;-61
2022/03/24 09:59:34;;;;;;;1.60;1.48;;;24.00;43.70;;;;;;4994829;28;44742;-61
2022/03/24 10:02:03;;;;;;;1.58;1.48;;;24.10;43.80;;;;;;4990716;28;45155;-60
2022/03/24 10:04:43;;;;;;;2.58;1.88;;;24.10;43.60;;;;;;4996408;28;45263;-61
2022/03/24 10:07:09;;;;;;;2.25;1.38;;;24.10;43.40;;;;;;4992193;28;46046;-61
2022/03/24 10:09:43;;;;;;;1.92;1.30;;;24.10;43.70;;;;;;4992254;28;45185;-61
2022/03/24 10:12:15;;;;;;;1.30;1.20;;;24.20;43.40;;;;;;4992744;28;44747;-59
2022/03/24 10:14:41;;;;;;;2.30;1.42;;;24.20;43.60;;;;;;4995002;28;45634;-59
2022/03/24 10:17:08;;;;;;;4.55;1.33;;;24.20;43.60;;;;;;4993537;28;46331;-61
2022/03/24 10:19:34;;;;;;;1.75;1.50;;;24.30;43.60;;;;;;4997079;28;45326;-55
2022/03/24 10:22:06;;;;;;;1.45;1.35;;;24.30;43.90;;;;;;4994852;28;45563;-62
2022/03/24 10:24:31;;;;;;;4.32;1.30;;;24.30;43.60;;;;;;4993912;28;45238;-62
2022/03/24 10:27:00;;;;;;;1.83;1.25;;;24.40;43.60;;;;;;4993256;28;46138;-61
2022/03/24 10:29:26;;;;;;;1.55;1.30;;;24.40;43.50;;;;;;4992069;28;44996;-61
2022/03/24 10:31:57;;;;;;;2.78;1.25;;;24.40;43.50;;;;;;4976944;28;45462;-61
2022/03/24 10:34:35;;;;;;;1.75;1.30;;;24.40;43.40;;;;;;4994662;28;44995;-59
2022/03/24 10:37:02;;;;;;;1.20;1.10;;;24.50;43.90;;;;;;4993361;28;46259;-61
2022/03/24 10:39:28;;;;;;;1.60;1.38;;;24.50;43.50;;;;;;4996793;28;44985;-61
2022/03/24 10:41:54;;;;;;;2.72;1.30;;;24.50;43.50;;;;;;5010917;28;45731;-58
2022/03/24 10:44:19;;;;;;;1.27;1.10;;;24.60;43.40;;;;;;4973940;28;45259;-62
2022/03/24 10:46:45;;;;;;;1.77;1.40;;;24.60;43.40;;;;;;4986879;28;45251;-60
2022/03/24 10:49:20;;;;;;;1.63;1.25;;;24.60;43.50;;;;;;4995247;28;45335;-58
2022/03/24 10:51:47;;;;;;;1.58;1.25;;;24.60;43.30;;;;;;4985782;28;45069;-59
2022/03/24 10:54:49;;;;;;;1.60;1.30;;;24.70;43.30;;;;;;4990985;28;45336;-60
2022/03/24 10:57:16;;;;;;;1.65;1.25;;;24.70;43.10;;;;;;4989350;28;48308;-61
2022/03/24 10:59:44;;;;;;;1.90;1.25;;;24.70;43.40;;;;;;4964957;28;44927;-57
2022/03/24 11:02:09;;;;;;;2.85;1.10;;;24.70;43.30;;;;;;4976219;28;45307;-62
2022/03/24 11:04:35;;;;;;;1.38;1.15;;;24.80;43.30;;;;;;4996292;28;44915;-60
2022/03/24 11:07:01;;;;;;;3.25;0.95;;;24.80;43.30;;;;;;4998212;28;45507;-62
2022/03/24 11:09:30;;;;;;;1.27;1.17;;;24.80;43.30;;;;;;4996411;28;45163;-62
2022/03/24 11:12:26;;;;;;;2.25;1.13;;;24.80;43.30;;;;;;4995725;28;45427;-63
2022/03/24 11:14:56;;;;;;;1.50;1.27;;;24.80;43.00;;;;;;4998836;28;45613;-60
2022/03/24 11:17:23;;;;;;;2.05;1.50;;;24.80;43.30;;;;;;4994672;28;45460;-62
2022/03/24 11:20:06;;;;;;;3.60;1.40;;;24.80;43.20;;;;;;4979441;28;45173;-62
2022/03/24 11:22:40;;;;;;;2.63;1.20;;;24.90;43.20;;;;;;4996672;28;44666;-61
2022/03/24 11:25:06;;;;;;;2.13;1.45;;;24.90;43.10;;;;;;4996785;28;45236;-60
2022/03/24 11:27:31;;;;;;;3.20;1.10;;;24.90;43.20;;;;;;4995838;28;45065;-61
2022/03/24 11:29:57;;;;;;;2.35;1.15;;;24.90;43.20;;;;;;4996146;28;44689;-59
2022/03/24 11:32:23;;;;;;;1.92;1.30;;;24.90;43.20;;;;;;4991265;28;45193;-59
2022/03/24 11:34:49;;;;;;;2.13;1.17;;;25.00;43.10;;;;;;4997499;28;45417;-60
2022/03/24 11:37:15;;;;;;;1.30;1.17;;;25.00;43.10;;;;;;4996037;28;45263;-61
2022/03/24 11:40:02;;;;;;;1.45;1.05;;;25.00;43.10;;;;;;4993221;28;45144;-60
2022/03/24 11:42:28;;;;;;;2.35;1.10;;;25.00;43.10;;;;;;4994150;28;44713;-60
2022/03/24 11:45:08;;;;;;;1.77;1.30;;;25.00;43.10;;;;;;4978389;28;44748;-60
2022/03/24 11:47:49;;;;;;;1.20;1.00;;;25.00;43.10;;;;;;4980937;28;46392;-62
2022/03/24 11:50:17;;;;;;;1.42;1.33;;;25.00;42.80;;;;;;4978070;28;44931;-62
2022/03/24 11:52:43;;;;;;;1.38;1.27;;;25.00;43.10;;;;;;4996357;28;45185;-61
2022/03/24 11:55:15;;;;;;;1.02;0.95;;;25.00;43.10;;;;;;4976743;28;46498;-60
2022/03/24 11:57:41;;;;;;;2.10;1.35;;;25.00;42.90;;;;;;4989209;28;45474;-58
2022/03/24 12:00:13;;;;;;;1.80;1.52;;;25.00;43.20;;;;;;4989608;28;45245;-62
2022/03/24 12:02:39;;;;;;;1.60;1.25;;;25.00;42.80;;;;;;4995743;28;45394;-60
2022/03/24 12:05:05;;;;;;;1.80;1.10;;;25.00;43.10;;;;;;4997599;28;45415;-56
2022/03/24 12:07:31;;;;;;;1.35;1.13;;;25.00;43.10;;;;;;4997265;28;44943;-61
2022/03/24 12:10:07;;;;;;;3.42;1.50;;;24.90;43.00;;;;;;4977979;28;45454;-58
2022/03/24 12:12:33;;;;;;;2.13;1.77;;;24.90;42.50;;;;;;5011797;28;45087;-63
2022/03/24 12:15:10;;;;;;;1.92;1.75;;;24.80;42.40;;;;;;4997566;28;45433;-60
2022/03/24 12:17:35;;;;;;;2.28;2.03;;;24.80;42.30;;;;;;4968390;28;46237;-59
2022/03/24 12:20:18;;;;;;;3.28;2.67;;;24.80;41.40;;;;;;4998600;28;45289;-60
2022/03/24 12:22:44;;;;;;;3.85;3.45;;;24.70;40.90;;;;;;4996976;28;45260;-60
2022/03/24 12:25:13;;;;;;;5.18;2.60;;;24.60;40.60;;;;;;4978763;28;45315;-56
2022/03/24 12:27:55;;;;;;;6.18;3.90;;;24.60;40.50;;;;;;4998087;28;46220;-60
2022/03/24 12:30:21;;;;;;;4.80;3.75;;;24.50;38.80;;;;;;4995262;28;45511;-60
2022/03/24 12:33:01;;;;;;;4.43;3.90;;;24.40;39.80;;;;;;4994932;28;45456;-57
2022/03/24 12:35:51;;;;;;;5.78;3.17;;;24.40;39.00;;;;;;4993312;28;45413;-61
2022/03/24 12:38:32;;;;;;;6.50;4.15;;;24.40;39.50;;;;;;4989640;28;45574;-60
2022/03/24 12:41:04;;;;;;;6.38;4.30;;;24.30;38.70;;;;;;5008052;28;45563;-61
2022/03/24 12:43:38;;;;;;;9.75;4.65;;;24.30;39.20;;;;;;4976692;28;45781;-60
2022/03/24 12:46:28;;;;;;;5.05;4.15;;;24.20;38.00;;;;;;4991384;28;45769;-59
2022/03/24 12:49:00;;;;;;;4.78;4.28;;;24.20;38.50;;;;;;4995646;28;45962;-58
2022/03/24 12:51:30;;;;;;;7.32;3.70;;;24.10;39.20;;;;;;4988308;28;45332;-60
2022/03/24 12:54:03;;;;;;;5.22;4.10;;;24.10;39.60;;;;;;4992756;28;45420;-62
2022/03/24 12:56:33;;;;;;;6.93;4.45;;;24.10;37.40;;;;;;4991388;28;45692;-58
2022/03/24 12:59:05;;;;;;;5.65;4.03;;;24.00;38.20;;;;;;4994831;28;46980;-60
2022/03/24 13:01:31;;;;;;;4.22;3.40;;;24.00;38.90;;;;;;4991147;28;45269;-60
2022/03/24 13:04:05;;;;;;;5.28;4.15;;;23.90;39.00;;;;;;4996004;28;45408;-62
2022/03/24 13:06:30;;;;;;;5.47;4.05;;;24.00;38.00;;;;;;4993549;28;49860;-61
2022/03/24 13:09:29;;;;;;;4.97;3.90;;;23.90;38.80;;;;;;4993314;28;45819;-64
2022/03/24 13:12:03;;;;;;;6.85;3.58;;;23.90;37.80;;;;;;4969194;28;45231;-63
2022/03/24 13:14:32;;;;;;;4.88;4.05;;;23.80;38.90;;;;;;5008068;28;44887;-61
2022/03/24 13:17:05;;;;;;;7.05;4.32;;;23.80;38.60;;;;;;4992181;28;45546;-60
2022/03/24 13:19:31;;;;;;;3.88;3.33;;;23.80;38.50;;;;;;4995180;28;45552;-61
2022/03/24 13:22:10;;;;;;;5.70;4.47;;;23.80;38.50;;;;;;4974437;28;45215;-59
2022/03/24 13:24:36;;;;;;;7.15;4.53;;;23.70;37.70;;;;;;4994069;28;45398;-59
2022/03/24 13:27:03;;;;;;;4.05;3.50;;;23.60;38.00;;;;;;4993627;28;45441;-61
2022/03/24 13:29:42;;;;;;;13.85;4.32;;;23.60;38.20;;;;;;4982826;28;46175;-61
2022/03/24 13:32:15;;;;;;;7.22;5.03;;;23.60;37.30;;;;;;4992551;28;45238;-60
2022/03/24 13:34:47;;;;;;;;;;;23.60;37.30;;;;;;4993329;28;45325;-62
2022/03/24 13:37:15;;;;;;;5.10;3.90;;;23.60;36.70;;;;;;4991771;28;45272;-59
2022/03/24 13:39:49;;;;;;;6.00;4.22;;;23.50;38.40;;;;;;4994248;28;45428;-61
2022/03/24 13:42:15;;;;;;;5.85;4.50;;;23.50;37.20;;;;;;4992978;28;44781;-57
2022/03/24 13:44:44;;;;;;;4.80;4.03;;;23.50;38.00;;;;;;4990372;28;45210;-58
2022/03/24 13:47:09;;;;;;;4.68;4.10;;;23.40;38.10;;;;;;4992353;28;45331;-57
2022/03/24 13:49:35;;;;;;;7.53;4.40;;;23.40;37.80;;;;;;4974938;28;46199;-59
2022/03/24 13:52:01;;;;;;;5.07;4.00;;;23.40;37.60;;;;;;4993037;28;45413;-61
2022/03/24 13:54:26;;;;;;;4.60;4.07;;;23.40;37.70;;;;;;4993210;28;45669;-61
2022/03/24 13:56:53;;;;;;;6.25;4.10;;;23.40;37.60;;;;;;4991202;28;44717;-60
2022/03/24 13:59:25;;;;;;;5.18;4.10;;;23.30;37.50;;;;;;4992645;28;45860;-60
2022/03/24 14:01:55;;;;;;;5.07;3.90;;;23.30;36.80;;;;;;4991513;28;45402;-60
2022/03/24 14:04:21;;;;;;;5.60;4.28;;;23.30;37.20;;;;;;4989691;28;45441;-60
2022/03/24 14:07:03;;;;;;;5.30;4.38;;;23.30;37.30;;;;;;4992645;28;44785;-59
2022/03/24 14:09:29;;;;;;;6.68;4.93;;;23.20;36.80;;;;;;4991026;28;45188;-60
2022/03/24 14:12:08;;;;;;;4.80;3.55;;;23.20;37.20;;;;;;4988857;28;45249;-58
2022/03/24 14:14:33;;;;;;;7.03;4.03;;;23.20;37.50;;;;;;5006159;28;45305;-60
2022/03/24 14:16:59;;;;;;;7.60;3.63;;;23.20;37.80;;;;;;4991054;28;45528;-60
2022/03/24 14:19:28;;;;;;;4.75;4.22;;;23.20;37.70;;;;;;4993462;28;45441;-61
2022/03/24 14:21:56;;;;;;;5.38;4.40;;;23.10;37.20;;;;;;4991519;28;45263;-61
2022/03/24 14:24:39;;;;;;;7.07;4.00;;;23.10;37.10;;;;;;4993573;28;45196;-61
2022/03/24 14:27:17;;;;;;;5.15;4.00;;;23.10;36.80;;;;;;4994427;28;45508;-59
2022/03/24 14:30:08;;;;;;;5.78;4.18;;;23.10;36.80;;;;;;4991476;28;45521;-60
2022/03/24 14:32:43;;;;;;;4.55;3.47;;;23.10;36.70;;;;;;4992002;28;45652;-58
2022/03/24 14:35:15;;;;;;;6.63;4.07;;;23.00;37.50;;;;;;4990856;28;45389;-62
2022/03/24 14:37:58;;;;;;;8.23;4.45;;;23.00;36.90;;;;;;4991632;28;45552;-59
2022/03/24 14:40:33;;;;;;;5.73;4.07;;;23.00;37.10;;;;;;4989680;28;46172;-58
2022/03/24 14:43:00;;;;;;;6.63;4.18;;;22.90;37.10;;;;;;4992722;28;45547;-61
2022/03/24 14:45:26;;;;;;;5.53;4.82;;;22.90;37.30;;;;;;4990570;28;45193;-60
2022/03/24 14:47:52;;;;;;;7.13;3.95;;;22.90;37.30;;;;;;4992851;28;45359;-58
2022/03/24 14:50:18;;;;;;;5.03;4.40;;;22.90;37.80;;;;;;4989612;28;46584;-58
2022/03/24 14:52:43;;;;;;;5.10;3.95;;;22.90;37.30;;;;;;4990139;28;45529;-56
2022/03/24 14:55:10;;;;;;;4.18;3.25;;;22.90;37.50;;;;;;4992186;28;44736;-60
2022/03/24 14:57:37;;;;;;;4.15;3.10;;;22.80;37.60;;;;;;4992737;28;45417;-61
2022/03/24 15:00:04;;;;;;;5.00;3.75;;;22.80;38.30;;;;;;4973705;28;45520;-60
2022/03/24 15:02:29;;;;;;;5.38;4.00;;;22.80;38.10;;;;;;4990551;28;46659;-58
2022/03/24 15:04:55;;;;;;;5.18;4.65;;;22.80;37.30;;;;;;4994281;28;45194;-60
2022/03/24 15:07:20;;;;;;;8.15;3.85;;;22.70;37.40;;;;;;4992862;28;45219;-60
2022/03/24 15:09:46;;;;;;;3.75;3.35;;;22.70;37.60;;;;;;4992943;28;46085;-62
2022/03/24 15:12:12;;;;;;;5.00;4.20;;;22.70;37.90;;;;;;4990187;28;45459;-58
2022/03/24 15:17:22;;;;;;;5.53;4.70;;;22.70;37.80;;;;;;4992054;28;45440;-56
2022/03/24 15:19:48;;;;;;;5.18;4.40;;;22.70;37.30;;;;;;4994938;28;46704;-59
2022/03/24 15:22:14;;;;;;;6.80;4.22;;;22.60;37.70;;;;;;4975643;28;45249;-61
2022/03/24 15:24:39;;;;;;;6.65;4.18;;;22.60;37.70;;;;;;4987653;28;45919;-58
2022/03/24 15:27:05;;;;;;;6.07;3.83;;;22.60;37.70;;;;;;4976332;28;45125;-59
2022/03/24 15:29:31;;;;;;;5.25;4.38;;;22.50;37.20;;;;;;4989335;28;45322;-60
2022/03/24 15:31:56;;;;;;;5.72;4.50;;;22.50;37.50;;;;;;4991478;28;45403;-59
2022/03/24 15:34:25;;;;;;;6.78;4.22;;;22.50;37.20;;;;;;4990094;28;45095;-58
2022/03/24 15:36:54;;;;;;;7.47;4.20;;;22.50;37.00;;;;;;4987305;28;44673;-60
2022/03/24 15:39:20;;;;;;;7.43;4.38;;;22.50;37.10;;;;;;4989191;28;46283;-59
2022/03/24 15:41:46;;;;;;;5.00;4.15;;;22.50;37.80;;;;;;4988432;28;45270;-61
2022/03/24 15:44:15;;;;;;;8.73;4.50;;;22.50;37.10;;;;;;4990369;28;45616;-61
2022/03/24 15:46:40;;;;;;;5.22;4.13;;;22.40;37.40;;;;;;4990899;28;46023;-59
2022/03/24 15:49:06;;;;;;;9.10;5.07;;;22.40;37.70;;;;;;4991748;28;45886;-60
2022/03/24 15:51:32;;;;;;;6.35;4.57;;;22.40;37.40;;;;;;4989250;28;44630;-60
2022/03/24 15:53:57;;;;;;;6.38;4.28;;;22.40;37.40;;;;;;4991891;28;45614;-61
2022/03/24 15:56:23;;;;;;;5.22;4.53;;;22.40;37.30;;;;;;4990634;28;45187;-59
2022/03/24 15:58:49;;;;;;;5.10;4.35;;;22.40;37.50;;;;;;4994714;28;45826;-58
2022/03/24 16:01:17;;;;;;;6.05;4.53;;;22.40;37.30;;;;;;4989635;28;46111;-61
2022/03/24 16:03:43;;;;;;;6.57;4.10;;;22.40;37.30;;;;;;4990914;28;44947;-59
2022/03/24 16:06:08;;;;;;;7.75;4.43;;;22.30;37.10;;;;;;4989436;28;45329;-59
2022/03/24 16:08:35;;;;;;;7.03;5.30;;;22.30;37.10;;;;;;4990903;28;45164;-61
2022/03/24 16:11:01;;;;;;;7.03;4.95;;;22.30;37.20;;;;;;4990499;28;45930;-60
2022/03/24 16:13:27;;;;;;;5.90;4.18;;;22.20;36.60;;;;;;4991318;28;45521;-60
2022/03/24 16:15:53;;;;;;;4.93;4.28;;;22.30;37.10;;;;;;4990641;28;45357;-63
2022/03/24 16:18:19;;;;;;;5.35;4.35;;;22.20;36.90;;;;;;4991066;28;45265;-55
2022/03/24 16:20:45;;;;;;;4.80;4.18;;;22.20;37.20;;;;;;4971351;28;45385;-59
2022/03/24 16:23:10;;;;;;;5.05;4.07;;;22.20;37.30;;;;;;4990405;28;45280;-61
2022/03/24 16:25:36;;;;;;;10.88;4.80;;;22.20;37.50;;;;;;4990391;28;45478;-61
2022/03/24 16:28:02;;;;;;;6.07;4.30;;;22.20;37.50;;;;;;4976494;28;46284;-61
2022/03/24 16:30:28;;;;;;;7.50;4.20;;;22.20;37.80;;;;;;4959039;28;44744;-61
2022/03/24 16:32:54;;;;;;;6.60;4.55;;;22.20;37.80;;;;;;4994041;28;45328;-60
2022/03/24 16:35:20;;;;;;;7.03;4.63;;;22.10;37.90;;;;;;4990006;28;45318;-60
2022/03/24 16:37:46;;;;;;;4.93;4.00;;;22.10;38.00;;;;;;4991940;28;45417;-62
2022/03/24 16:40:12;;;;;;;5.47;3.90;;;22.10;38.10;;;;;;5005459;28;45549;-59
2022/03/24 16:42:38;;;;;;;6.07;4.60;;;22.10;37.70;;;;;;5006406;28;45373;-59
2022/03/24 16:45:05;;;;;;;5.53;4.63;;;22.10;37.90;;;;;;4992144;28;45348;-60
2022/03/24 16:47:31;;;;;;;9.07;4.80;;;22.10;37.40;;;;;;4990805;28;46146;-61
2022/03/24 16:49:57;;;;;;;5.80;4.30;;;22.00;37.60;;;;;;4991807;28;45009;-59
2022/03/24 16:52:25;;;;;;;7.05;4.38;;;22.00;37.40;;;;;;4993832;28;45363;-61
2022/03/24 16:54:51;;;;;;;5.93;4.35;;;22.00;37.70;;;;;;4996745;28;45336;-60
2022/03/24 16:57:16;;;;;;;6.53;4.68;;;22.00;37.50;;;;;;4975840;28;46934;-60